sensor_id;sensor_type;location;lat;lon;timestamp;temperature;humidity
17370;DHT22;8802;52.402;4.920;2023-07-20T00:00:37;19.90;97.60
17370;DHT22;8802;52.402;4.920;2023-07-20T00:03:11;19.90;97.60
17370;DHT22;8802;52.402;4.920;2023-07-20T00:05:42;19.90;97.70
17370;DHT22;8802;52.402;4.920;2023-07-20T00:08:10;19.90;97.80
17370;DHT22;8802;52.402;4.920;2023-07-20T00:10:37;19.90;97.70
17370;DHT22;8802;52.402;4.920;2023-07-20T00:13:04;19.90;97.60
17370;DHT22;8802;52.402;4.920;2023-07-20T00:15:33;19.90;97.60
17370;DHT22;8802;52.402;4.920;2023-07-20T00:18:00;19.80;97.60
17370;DHT22;8802;52.402;4.920;2023-07-20T00:20:26;19.80;97.60
17370;DHT22;8802;52.402;4.920;2023-07-20T00:22:53;19.80;97.60
17370;DHT22;8802;52.402;4.920;2023-07-20T00:25:23;19.80;97.60
17370;DHT22;8802;52.402;4.920;2023-07-20T00:27:50;19.80;97.50
17370;DHT22;8802;52.402;4.920;2023-07-20T00:30:17;19.80;97.60
17370;DHT22;8802;52.402;4.920;2023-07-20T00:32:45;19.80;97.60
17370;DHT22;8802;52.402;4.920;2023-07-20T00:35:13;19.80;97.70
17370;DHT22;8802;52.402;4.920;2023-07-20T00:37:40;19.70;97.70
17370;DHT22;8802;52.402;4.920;2023-07-20T00:40:07;19.70;97.80
17370;DHT22;8802;52.402;4.920;2023-07-20T00:42:34;19.70;97.60
17370;DHT22;8802;52.402;4.920;2023-07-20T00:45:01;19.70;97.70
17370;DHT22;8802;52.402;4.920;2023-07-20T00:47:28;19.70;97.70
17370;DHT22;8802;52.402;4.920;2023-07-20T00:49:57;19.70;97.70
17370;DHT22;8802;52.402;4.920;2023-07-20T00:52:25;19.70;97.70
17370;DHT22;8802;52.402;4.920;2023-07-20T00:54:53;19.70;98.10
17370;DHT22;8802;52.402;4.920;2023-07-20T00:57:23;19.70;97.70
17370;DHT22;8802;52.402;4.920;2023-07-20T00:59:50;19.70;97.70
17370;DHT22;8802;52.402;4.920;2023-07-20T01:02:17;19.70;97.70
17370;DHT22;8802;52.402;4.920;2023-07-20T01:04:44;19.60;97.80
17370;DHT22;8802;52.402;4.920;2023-07-20T01:07:17;19.60;97.70
17370;DHT22;8802;52.402;4.920;2023-07-20T01:09:51;19.60;97.80
17370;DHT22;8802;52.402;4.920;2023-07-20T01:12:25;19.60;97.80
17370;DHT22;8802;52.402;4.920;2023-07-20T01:14:53;19.60;97.80
17370;DHT22;8802;52.402;4.920;2023-07-20T01:17:20;19.60;97.80
17370;DHT22;8802;52.402;4.920;2023-07-20T01:19:49;19.50;97.80
17370;DHT22;8802;52.402;4.920;2023-07-20T01:22:35;19.50;97.80
17370;DHT22;8802;52.402;4.920;2023-07-20T01:25:31;19.50;98.20
17370;DHT22;8802;52.402;4.920;2023-07-20T01:31:16;19.50;97.80
17370;DHT22;8802;52.402;4.920;2023-07-20T01:33:44;19.50;97.80
17370;DHT22;8802;52.402;4.920;2023-07-20T01:36:14;19.50;97.70
17370;DHT22;8802;52.402;4.920;2023-07-20T01:38:43;19.50;97.80
17370;DHT22;8802;52.402;4.920;2023-07-20T01:41:11;19.50;97.80
17370;DHT22;8802;52.402;4.920;2023-07-20T01:43:38;19.40;98.20
17370;DHT22;8802;52.402;4.920;2023-07-20T01:46:05;19.40;97.80
17370;DHT22;8802;52.402;4.920;2023-07-20T01:48:33;19.40;97.90
17370;DHT22;8802;52.402;4.920;2023-07-20T01:51:00;19.40;97.90
17370;DHT22;8802;52.402;4.920;2023-07-20T01:53:27;19.40;97.90
17370;DHT22;8802;52.402;4.920;2023-07-20T01:55:54;19.30;97.90
17370;DHT22;8802;52.402;4.920;2023-07-20T01:58:21;19.30;97.90
17370;DHT22;8802;52.402;4.920;2023-07-20T02:00:48;19.30;97.90
17370;DHT22;8802;52.402;4.920;2023-07-20T02:03:15;19.30;97.80
17370;DHT22;8802;52.402;4.920;2023-07-20T02:05:44;19.30;97.80
17370;DHT22;8802;52.402;4.920;2023-07-20T02:08:11;19.30;97.90
17370;DHT22;8802;52.402;4.920;2023-07-20T02:10:38;19.30;97.90
17370;DHT22;8802;52.402;4.920;2023-07-20T02:13:04;19.30;97.80
17370;DHT22;8802;52.402;4.920;2023-07-20T02:15:31;19.30;97.80
17370;DHT22;8802;52.402;4.920;2023-07-20T02:17:58;19.30;97.90
17370;DHT22;8802;52.402;4.920;2023-07-20T02:20:25;19.20;98.20
17370;DHT22;8802;52.402;4.920;2023-07-20T02:22:54;19.20;97.80
17370;DHT22;8802;52.402;4.920;2023-07-20T02:25:21;19.20;97.90
17370;DHT22;8802;52.402;4.920;2023-07-20T02:27:48;19.20;97.80
17370;DHT22;8802;52.402;4.920;2023-07-20T02:30:15;19.20;97.90
17370;DHT22;8802;52.402;4.920;2023-07-20T02:32:43;19.20;97.90
17370;DHT22;8802;52.402;4.920;2023-07-20T02:35:11;19.10;97.90
17370;DHT22;8802;52.402;4.920;2023-07-20T02:37:38;19.10;98.30
17370;DHT22;8802;52.402;4.920;2023-07-20T02:40:07;19.10;98.00
17370;DHT22;8802;52.402;4.920;2023-07-20T02:42:34;19.10;98.00
17370;DHT22;8802;52.402;4.920;2023-07-20T02:45:02;19.10;98.00
17370;DHT22;8802;52.402;4.920;2023-07-20T02:47:29;19.10;98.10
17370;DHT22;8802;52.402;4.920;2023-07-20T02:49:57;19.10;98.00
17370;DHT22;8802;52.402;4.920;2023-07-20T02:52:23;19.10;98.00
17370;DHT22;8802;52.402;4.920;2023-07-20T02:54:50;19.10;97.90
17370;DHT22;8802;52.402;4.920;2023-07-20T02:57:19;19.10;97.90
17370;DHT22;8802;52.402;4.920;2023-07-20T02:59:46;19.00;98.00
17370;DHT22;8802;52.402;4.920;2023-07-20T03:02:13;19.00;98.10
17370;DHT22;8802;52.402;4.920;2023-07-20T03:04:40;19.00;98.00
17370;DHT22;8802;52.402;4.920;2023-07-20T03:07:07;19.00;98.00
17370;DHT22;8802;52.402;4.920;2023-07-20T03:09:34;19.00;98.00
17370;DHT22;8802;52.402;4.920;2023-07-20T03:12:01;19.00;97.90
17370;DHT22;8802;52.402;4.920;2023-07-20T03:14:31;19.00;98.00
17370;DHT22;8802;52.402;4.920;2023-07-20T03:16:58;18.90;98.00
17370;DHT22;8802;52.402;4.920;2023-07-20T03:19:25;18.90;98.00
17370;DHT22;8802;52.402;4.920;2023-07-20T03:21:53;18.90;98.00
17370;DHT22;8802;52.402;4.920;2023-07-20T03:24:20;18.90;98.00
17370;DHT22;8802;52.402;4.920;2023-07-20T03:26:49;18.90;98.00
17370;DHT22;8802;52.402;4.920;2023-07-20T03:29:16;18.90;97.80
17370;DHT22;8802;52.402;4.920;2023-07-20T03:31:44;18.90;97.80
17370;DHT22;8802;52.402;4.920;2023-07-20T03:34:11;18.90;97.90
17370;DHT22;8802;52.402;4.920;2023-07-20T03:36:38;18.90;97.90
17370;DHT22;8802;52.402;4.920;2023-07-20T03:39:05;18.80;97.80
17370;DHT22;8802;52.402;4.920;2023-07-20T03:41:32;18.80;97.80
17370;DHT22;8802;52.402;4.920;2023-07-20T03:43:59;18.80;97.70
17370;DHT22;8802;52.402;4.920;2023-07-20T03:46:26;18.80;97.60
17370;DHT22;8802;52.402;4.920;2023-07-20T03:48:54;18.80;97.70
17370;DHT22;8802;52.402;4.920;2023-07-20T03:51:21;18.70;97.80
17370;DHT22;8802;52.402;4.920;2023-07-20T03:53:48;18.70;97.80
17370;DHT22;8802;52.402;4.920;2023-07-20T03:56:15;18.70;97.80
17370;DHT22;8802;52.402;4.920;2023-07-20T03:58:42;18.70;97.80
17370;DHT22;8802;52.402;4.920;2023-07-20T04:01:09;18.70;97.80
17370;DHT22;8802;52.402;4.920;2023-07-20T04:03:36;18.70;97.80
17370;DHT22;8802;52.402;4.920;2023-07-20T04:06:04;18.60;97.80
17370;DHT22;8802;52.402;4.920;2023-07-20T04:08:31;18.60;97.80
17370;DHT22;8802;52.402;4.920;2023-07-20T04:11:01;18.60;97.80
17370;DHT22;8802;52.402;4.920;2023-07-20T04:13:28;18.60;97.90
17370;DHT22;8802;52.402;4.920;2023-07-20T04:15:58;18.60;97.90
17370;DHT22;8802;52.402;4.920;2023-07-20T04:18:25;18.60;97.80
17370;DHT22;8802;52.402;4.920;2023-07-20T04:20:52;18.60;97.90
17370;DHT22;8802;52.402;4.920;2023-07-20T04:23:21;18.60;97.90
17370;DHT22;8802;52.402;4.920;2023-07-20T04:25:48;18.60;98.00
17370;DHT22;8802;52.402;4.920;2023-07-20T04:28:15;18.50;97.90
17370;DHT22;8802;52.402;4.920;2023-07-20T04:30:42;18.50;98.00
17370;DHT22;8802;52.402;4.920;2023-07-20T04:33:09;18.50;98.00
17370;DHT22;8802;52.402;4.920;2023-07-20T04:35:47;18.50;97.90
17370;DHT22;8802;52.402;4.920;2023-07-20T04:38:14;18.50;98.00
17370;DHT22;8802;52.402;4.920;2023-07-20T04:40:44;18.50;98.00
17370;DHT22;8802;52.402;4.920;2023-07-20T04:43:11;18.50;98.10
17370;DHT22;8802;52.402;4.920;2023-07-20T04:45:38;18.50;98.10
17370;DHT22;8802;52.402;4.920;2023-07-20T04:48:09;18.50;98.10
17370;DHT22;8802;52.402;4.920;2023-07-20T04:50:36;18.50;98.20
17370;DHT22;8802;52.402;4.920;2023-07-20T04:53:03;18.50;98.30
17370;DHT22;8802;52.402;4.920;2023-07-20T04:55:30;18.50;98.40
17370;DHT22;8802;52.402;4.920;2023-07-20T04:58:00;18.50;98.40
17370;DHT22;8802;52.402;4.920;2023-07-20T05:00:27;18.50;98.50
17370;DHT22;8802;52.402;4.920;2023-07-20T05:02:54;18.50;98.50
17370;DHT22;8802;52.402;4.920;2023-07-20T05:05:22;18.50;98.40
17370;DHT22;8802;52.402;4.920;2023-07-20T05:07:49;18.50;98.30
17370;DHT22;8802;52.402;4.920;2023-07-20T05:10:16;18.60;98.30
17370;DHT22;8802;52.402;4.920;2023-07-20T05:12:43;18.60;98.40
17370;DHT22;8802;52.402;4.920;2023-07-20T05:15:11;18.60;98.50
17370;DHT22;8802;52.402;4.920;2023-07-20T05:17:39;18.60;98.50
17370;DHT22;8802;52.402;4.920;2023-07-20T05:20:07;18.60;98.50
17370;DHT22;8802;52.402;4.920;2023-07-20T05:22:36;18.60;98.50
17370;DHT22;8802;52.402;4.920;2023-07-20T05:25:06;18.60;98.50
17370;DHT22;8802;52.402;4.920;2023-07-20T05:27:33;18.60;98.50
17370;DHT22;8802;52.402;4.920;2023-07-20T05:30:01;18.70;98.40
17370;DHT22;8802;52.402;4.920;2023-07-20T05:32:29;18.70;98.40
17370;DHT22;8802;52.402;4.920;2023-07-20T05:34:56;18.70;98.40
17370;DHT22;8802;52.402;4.920;2023-07-20T05:37:23;18.70;98.50
17370;DHT22;8802;52.402;4.920;2023-07-20T05:39:51;18.70;98.50
17370;DHT22;8802;52.402;4.920;2023-07-20T05:42:17;18.80;98.40
17370;DHT22;8802;52.402;4.920;2023-07-20T05:44:44;18.80;98.50
17370;DHT22;8802;52.402;4.920;2023-07-20T05:47:12;18.80;98.60
17370;DHT22;8802;52.402;4.920;2023-07-20T05:49:41;18.80;98.60
17370;DHT22;8802;52.402;4.920;2023-07-20T05:52:08;18.80;98.70
17370;DHT22;8802;52.402;4.920;2023-07-20T05:54:35;18.90;98.70
17370;DHT22;8802;52.402;4.920;2023-07-20T05:57:02;18.90;98.70
17370;DHT22;8802;52.402;4.920;2023-07-20T05:59:29;18.90;98.60
17370;DHT22;8802;52.402;4.920;2023-07-20T06:01:57;18.90;98.60
17370;DHT22;8802;52.402;4.920;2023-07-20T06:04:24;18.90;98.50
17370;DHT22;8802;52.402;4.920;2023-07-20T06:06:52;19.00;98.60
17370;DHT22;8802;52.402;4.920;2023-07-20T06:09:19;19.00;98.60
17370;DHT22;8802;52.402;4.920;2023-07-20T06:11:46;19.00;98.60
17370;DHT22;8802;52.402;4.920;2023-07-20T06:14:13;19.10;98.00
17370;DHT22;8802;52.402;4.920;2023-07-20T06:16:40;19.10;98.10
17370;DHT22;8802;52.402;4.920;2023-07-20T06:19:07;19.10;98.40
17370;DHT22;8802;52.402;4.920;2023-07-20T06:21:36;19.20;98.50
17370;DHT22;8802;52.402;4.920;2023-07-20T06:24:05;19.20;98.30
17370;DHT22;8802;52.402;4.920;2023-07-20T06:26:32;19.20;97.20
17370;DHT22;8802;52.402;4.920;2023-07-20T06:29:04;19.30;97.90
17370;DHT22;8802;52.402;4.920;2023-07-20T06:31:31;19.40;97.70
17370;DHT22;8802;52.402;4.920;2023-07-20T06:33:58;19.50;97.80
17370;DHT22;8802;52.402;4.920;2023-07-20T06:36:26;19.50;97.40
17370;DHT22;8802;52.402;4.920;2023-07-20T06:38:54;19.60;97.80
17370;DHT22;8802;52.402;4.920;2023-07-20T06:41:22;19.70;97.80
17370;DHT22;8802;52.402;4.920;2023-07-20T06:43:50;19.80;97.80
17370;DHT22;8802;52.402;4.920;2023-07-20T06:46:18;19.90;97.60
17370;DHT22;8802;52.402;4.920;2023-07-20T06:48:45;20.00;96.80
17370;DHT22;8802;52.402;4.920;2023-07-20T06:51:12;20.10;97.00
17370;DHT22;8802;52.402;4.920;2023-07-20T06:53:39;20.10;96.90
17370;DHT22;8802;52.402;4.920;2023-07-20T06:56:06;20.20;96.20
17370;DHT22;8802;52.402;4.920;2023-07-20T06:58:34;20.30;96.00
17370;DHT22;8802;52.402;4.920;2023-07-20T07:01:05;20.30;96.00
17370;DHT22;8802;52.402;4.920;2023-07-20T07:03:32;20.40;95.80
17370;DHT22;8802;52.402;4.920;2023-07-20T07:05:59;20.50;95.60
17370;DHT22;8802;52.402;4.920;2023-07-20T07:08:26;20.50;95.60
17370;DHT22;8802;52.402;4.920;2023-07-20T07:10:53;20.60;95.60
17370;DHT22;8802;52.402;4.920;2023-07-20T07:13:20;20.70;95.30
17370;DHT22;8802;52.402;4.920;2023-07-20T07:15:48;20.80;94.50
17370;DHT22;8802;52.402;4.920;2023-07-20T07:18:15;20.80;94.50
17370;DHT22;8802;52.402;4.920;2023-07-20T07:20:50;20.90;94.60
17370;DHT22;8802;52.402;4.920;2023-07-20T07:23:17;20.90;94.30
17370;DHT22;8802;52.402;4.920;2023-07-20T07:25:45;21.00;94.50
17370;DHT22;8802;52.402;4.920;2023-07-20T07:28:12;21.00;94.40
17370;DHT22;8802;52.402;4.920;2023-07-20T07:30:39;21.10;93.50
17370;DHT22;8802;52.402;4.920;2023-07-20T07:33:08;21.10;93.90
17370;DHT22;8802;52.402;4.920;2023-07-20T07:35:35;21.20;93.10
17370;DHT22;8802;52.402;4.920;2023-07-20T07:38:02;21.20;92.10
17370;DHT22;8802;52.402;4.920;2023-07-20T07:40:29;21.30;92.60
17370;DHT22;8802;52.402;4.920;2023-07-20T07:42:56;21.30;92.60
17370;DHT22;8802;52.402;4.920;2023-07-20T07:45:23;21.40;92.60
17370;DHT22;8802;52.402;4.920;2023-07-20T07:47:50;21.50;92.80
17370;DHT22;8802;52.402;4.920;2023-07-20T07:50:18;21.50;92.70
17370;DHT22;8802;52.402;4.920;2023-07-20T07:52:45;21.60;92.10
17370;DHT22;8802;52.402;4.920;2023-07-20T07:55:12;21.70;92.20
17370;DHT22;8802;52.402;4.920;2023-07-20T07:57:42;21.70;91.50
17370;DHT22;8802;52.402;4.920;2023-07-20T08:00:10;21.80;92.10
17370;DHT22;8802;52.402;4.920;2023-07-20T08:02:40;21.80;92.50
17370;DHT22;8802;52.402;4.920;2023-07-20T08:05:08;21.90;91.90
17370;DHT22;8802;52.402;4.920;2023-07-20T08:07:36;21.90;91.70
17370;DHT22;8802;52.402;4.920;2023-07-20T08:10:04;22.00;91.60
17370;DHT22;8802;52.402;4.920;2023-07-20T08:12:32;22.10;91.90
17370;DHT22;8802;52.402;4.920;2023-07-20T08:14:59;22.10;91.20
17370;DHT22;8802;52.402;4.920;2023-07-20T08:17:25;22.20;91.10
17370;DHT22;8802;52.402;4.920;2023-07-20T08:19:52;22.30;91.50
17370;DHT22;8802;52.402;4.920;2023-07-20T08:22:19;22.30;91.20
17370;DHT22;8802;52.402;4.920;2023-07-20T08:24:48;22.40;91.20
17370;DHT22;8802;52.402;4.920;2023-07-20T08:27:15;22.40;90.90
17370;DHT22;8802;52.402;4.920;2023-07-20T08:29:41;22.50;90.80
17370;DHT22;8802;52.402;4.920;2023-07-20T08:32:08;22.50;90.50
17370;DHT22;8802;52.402;4.920;2023-07-20T08:34:35;22.60;91.20
17370;DHT22;8802;52.402;4.920;2023-07-20T08:37:03;22.60;90.70
17370;DHT22;8802;52.402;4.920;2023-07-20T08:39:30;22.50;90.40
17370;DHT22;8802;52.402;4.920;2023-07-20T08:42:00;22.50;90.10
17370;DHT22;8802;52.402;4.920;2023-07-20T08:44:30;22.50;89.90
17370;DHT22;8802;52.402;4.920;2023-07-20T08:46:59;22.50;89.30
17370;DHT22;8802;52.402;4.920;2023-07-20T08:49:28;22.50;89.10
17370;DHT22;8802;52.402;4.920;2023-07-20T08:51:56;22.60;87.50
17370;DHT22;8802;52.402;4.920;2023-07-20T08:54:24;22.60;87.80
17370;DHT22;8802;52.402;4.920;2023-07-20T08:56:58;22.60;85.40
17370;DHT22;8802;52.402;4.920;2023-07-20T08:59:29;22.60;85.40
17370;DHT22;8802;52.402;4.920;2023-07-20T09:01:56;22.70;86.50
17370;DHT22;8802;52.402;4.920;2023-07-20T09:04:24;22.70;84.80
17370;DHT22;8802;52.402;4.920;2023-07-20T09:06:51;22.80;85.00
17370;DHT22;8802;52.402;4.920;2023-07-20T09:09:18;22.90;85.20
17370;DHT22;8802;52.402;4.920;2023-07-20T09:11:47;22.90;85.30
17370;DHT22;8802;52.402;4.920;2023-07-20T09:14:16;23.00;84.90
17370;DHT22;8802;52.402;4.920;2023-07-20T09:16:49;23.10;86.60
17370;DHT22;8802;52.402;4.920;2023-07-20T09:19:17;23.20;85.00
17370;DHT22;8802;52.402;4.920;2023-07-20T09:21:47;23.30;86.20
17370;DHT22;8802;52.402;4.920;2023-07-20T09:24:15;23.40;83.40
17370;DHT22;8802;52.402;4.920;2023-07-20T09:26:43;23.50;83.70
17370;DHT22;8802;52.402;4.920;2023-07-20T09:29:10;23.60;84.30
17370;DHT22;8802;52.402;4.920;2023-07-20T09:31:38;23.70;85.50
17370;DHT22;8802;52.402;4.920;2023-07-20T09:34:06;23.70;84.60
17370;DHT22;8802;52.402;4.920;2023-07-20T09:36:35;23.80;84.10
17370;DHT22;8802;52.402;4.920;2023-07-20T09:39:03;23.80;84.60
17370;DHT22;8802;52.402;4.920;2023-07-20T09:41:31;23.90;84.30
17370;DHT22;8802;52.402;4.920;2023-07-20T09:44:06;23.90;83.40
17370;DHT22;8802;52.402;4.920;2023-07-20T09:46:44;24.00;82.90
17370;DHT22;8802;52.402;4.920;2023-07-20T09:49:11;24.00;81.70
17370;DHT22;8802;52.402;4.920;2023-07-20T09:51:38;24.00;81.40
17370;DHT22;8802;52.402;4.920;2023-07-20T09:54:06;24.10;81.10
17370;DHT22;8802;52.402;4.920;2023-07-20T09:56:35;24.10;81.20
17370;DHT22;8802;52.402;4.920;2023-07-20T09:59:03;24.10;81.20
17370;DHT22;8802;52.402;4.920;2023-07-20T10:01:32;24.10;81.00
17370;DHT22;8802;52.402;4.920;2023-07-20T10:04:03;24.20;81.30
17370;DHT22;8802;52.402;4.920;2023-07-20T10:06:33;24.20;81.50
17370;DHT22;8802;52.402;4.920;2023-07-20T10:09:02;24.30;82.10
17370;DHT22;8802;52.402;4.920;2023-07-20T10:11:33;24.30;82.20
17370;DHT22;8802;52.402;4.920;2023-07-20T10:14:03;24.30;81.90
17370;DHT22;8802;52.402;4.920;2023-07-20T10:16:34;24.40;80.90
17370;DHT22;8802;52.402;4.920;2023-07-20T10:19:05;24.40;81.20
17370;DHT22;8802;52.402;4.920;2023-07-20T10:21:36;24.40;80.70
17370;DHT22;8802;52.402;4.920;2023-07-20T10:24:04;24.50;80.00
17370;DHT22;8802;52.402;4.920;2023-07-20T10:26:31;24.50;80.00
17370;DHT22;8802;52.402;4.920;2023-07-20T10:28:59;24.60;80.70
17370;DHT22;8802;52.402;4.920;2023-07-20T10:31:27;24.60;80.50
17370;DHT22;8802;52.402;4.920;2023-07-20T10:33:56;24.60;79.80
17370;DHT22;8802;52.402;4.920;2023-07-20T10:36:26;24.70;80.00
17370;DHT22;8802;52.402;4.920;2023-07-20T10:38:54;24.70;80.90
17370;DHT22;8802;52.402;4.920;2023-07-20T10:41:27;24.80;80.10
17370;DHT22;8802;52.402;4.920;2023-07-20T10:43:58;24.80;80.40
17370;DHT22;8802;52.402;4.920;2023-07-20T10:46:42;24.90;79.10
17370;DHT22;8802;52.402;4.920;2023-07-20T10:49:10;25.00;78.60
17370;DHT22;8802;52.402;4.920;2023-07-20T10:51:43;25.10;78.50
17370;DHT22;8802;52.402;4.920;2023-07-20T10:54:34;25.20;78.30
17370;DHT22;8802;52.402;4.920;2023-07-20T10:57:23;25.30;77.70
17370;DHT22;8802;52.402;4.920;2023-07-20T10:59:50;25.40;77.40
17370;DHT22;8802;52.402;4.920;2023-07-20T11:02:18;25.40;77.10
17370;DHT22;8802;52.402;4.920;2023-07-20T11:04:47;25.50;74.70
17370;DHT22;8802;52.402;4.920;2023-07-20T11:07:37;25.50;75.30
17370;DHT22;8802;52.402;4.920;2023-07-20T11:10:14;25.50;74.90
17370;DHT22;8802;52.402;4.920;2023-07-20T11:12:41;25.50;74.80
17370;DHT22;8802;52.402;4.920;2023-07-20T11:15:44;25.60;74.60
17370;DHT22;8802;52.402;4.920;2023-07-20T11:18:12;25.60;74.40
17370;DHT22;8802;52.402;4.920;2023-07-20T11:20:39;25.70;74.40
17370;DHT22;8802;52.402;4.920;2023-07-20T11:23:09;25.70;73.50
17370;DHT22;8802;52.402;4.920;2023-07-20T11:25:39;25.70;73.90
17370;DHT22;8802;52.402;4.920;2023-07-20T11:28:07;25.80;75.70
17370;DHT22;8802;52.402;4.920;2023-07-20T11:30:36;25.90;72.60
17370;DHT22;8802;52.402;4.920;2023-07-20T11:33:04;26.00;72.40
17370;DHT22;8802;52.402;4.920;2023-07-20T11:35:34;26.10;71.90
17370;DHT22;8802;52.402;4.920;2023-07-20T11:38:02;26.20;73.40
17370;DHT22;8802;52.402;4.920;2023-07-20T11:40:30;26.30;72.90
17370;DHT22;8802;52.402;4.920;2023-07-20T11:42:57;26.40;71.80
17370;DHT22;8802;52.402;4.920;2023-07-20T11:45:25;26.40;71.60
17370;DHT22;8802;52.402;4.920;2023-07-20T11:47:53;26.50;71.40
17370;DHT22;8802;52.402;4.920;2023-07-20T11:50:20;26.60;70.90
17370;DHT22;8802;52.402;4.920;2023-07-20T11:52:47;26.60;70.40
17370;DHT22;8802;52.402;4.920;2023-07-20T11:55:14;26.70;70.70
17370;DHT22;8802;52.402;4.920;2023-07-20T11:58:01;26.70;69.50
17370;DHT22;8802;52.402;4.920;2023-07-20T12:00:27;26.80;69.10
17370;DHT22;8802;52.402;4.920;2023-07-20T12:02:54;26.80;68.80
17370;DHT22;8802;52.402;4.920;2023-07-20T12:05:22;26.70;67.50
17370;DHT22;8802;52.402;4.920;2023-07-20T12:07:50;26.70;69.30
17370;DHT22;8802;52.402;4.920;2023-07-20T12:10:24;26.60;68.50
17370;DHT22;8802;52.402;4.920;2023-07-20T12:12:52;26.60;67.10
17370;DHT22;8802;52.402;4.920;2023-07-20T12:15:21;26.60;67.80
17370;DHT22;8802;52.402;4.920;2023-07-20T12:17:50;26.50;68.00
17370;DHT22;8802;52.402;4.920;2023-07-20T12:20:26;26.60;67.00
17370;DHT22;8802;52.402;4.920;2023-07-20T12:22:57;26.60;67.10
17370;DHT22;8802;52.402;4.920;2023-07-20T12:25:33;26.60;67.00
17370;DHT22;8802;52.402;4.920;2023-07-20T12:28:02;26.60;67.50
17370;DHT22;8802;52.402;4.920;2023-07-20T12:30:31;26.60;67.30
17370;DHT22;8802;52.402;4.920;2023-07-20T12:32:58;26.60;67.00
17370;DHT22;8802;52.402;4.920;2023-07-20T12:35:25;26.60;66.70
17370;DHT22;8802;52.402;4.920;2023-07-20T12:37:52;26.60;68.50
17370;DHT22;8802;52.402;4.920;2023-07-20T12:40:20;26.60;67.60
17370;DHT22;8802;52.402;4.920;2023-07-20T12:42:46;26.70;69.70
17370;DHT22;8802;52.402;4.920;2023-07-20T12:45:15;26.70;68.10
17370;DHT22;8802;52.402;4.920;2023-07-20T12:47:42;26.80;66.40
17370;DHT22;8802;52.402;4.920;2023-07-20T12:50:09;26.80;67.80
17370;DHT22;8802;52.402;4.920;2023-07-20T12:52:37;26.90;67.00
17370;DHT22;8802;52.402;4.920;2023-07-20T12:55:06;27.00;66.30
17370;DHT22;8802;52.402;4.920;2023-07-20T12:57:33;27.10;65.70
17370;DHT22;8802;52.402;4.920;2023-07-20T13:00:00;27.20;66.20
17370;DHT22;8802;52.402;4.920;2023-07-20T13:02:30;27.30;65.70
17370;DHT22;8802;52.402;4.920;2023-07-20T13:04:57;27.40;64.80
17370;DHT22;8802;52.402;4.920;2023-07-20T13:07:30;27.40;64.30
17370;DHT22;8802;52.402;4.920;2023-07-20T13:09:57;27.40;63.50
17370;DHT22;8802;52.402;4.920;2023-07-20T13:12:26;27.50;64.40
17370;DHT22;8802;52.402;4.920;2023-07-20T13:14:53;27.50;63.80
17370;DHT22;8802;52.402;4.920;2023-07-20T13:17:20;27.40;63.50
17370;DHT22;8802;52.402;4.920;2023-07-20T13:19:49;27.40;62.60
17370;DHT22;8802;52.402;4.920;2023-07-20T13:22:16;27.40;62.80
17370;DHT22;8802;52.402;4.920;2023-07-20T13:24:44;27.40;62.10
17370;DHT22;8802;52.402;4.920;2023-07-20T13:27:12;27.30;62.00
17370;DHT22;8802;52.402;4.920;2023-07-20T13:29:38;27.30;62.80
17370;DHT22;8802;52.402;4.920;2023-07-20T13:32:06;27.30;62.50
17370;DHT22;8802;52.402;4.920;2023-07-20T13:34:34;27.30;61.60
17370;DHT22;8802;52.402;4.920;2023-07-20T13:37:02;27.30;61.60
17370;DHT22;8802;52.402;4.920;2023-07-20T13:39:29;27.30;61.40
17370;DHT22;8802;52.402;4.920;2023-07-20T13:41:56;27.30;60.90
17370;DHT22;8802;52.402;4.920;2023-07-20T13:44:23;27.30;61.30
17370;DHT22;8802;52.402;4.920;2023-07-20T13:46:50;27.30;60.60
17370;DHT22;8802;52.402;4.920;2023-07-20T13:49:17;27.30;60.80
17370;DHT22;8802;52.402;4.920;2023-07-20T13:51:44;27.20;61.10
17370;DHT22;8802;52.402;4.920;2023-07-20T13:54:13;27.20;60.20
17370;DHT22;8802;52.402;4.920;2023-07-20T13:56:40;27.10;60.50
17370;DHT22;8802;52.402;4.920;2023-07-20T13:59:07;27.20;60.70
17370;DHT22;8802;52.402;4.920;2023-07-20T14:01:34;27.10;60.40
17370;DHT22;8802;52.402;4.920;2023-07-20T14:04:01;27.10;60.60
17370;DHT22;8802;52.402;4.920;2023-07-20T14:06:31;27.10;60.10
17370;DHT22;8802;52.402;4.920;2023-07-20T14:08:59;27.00;60.20
17370;DHT22;8802;52.402;4.920;2023-07-20T14:11:27;27.00;60.20
17370;DHT22;8802;52.402;4.920;2023-07-20T14:13:54;27.00;60.20
17370;DHT22;8802;52.402;4.920;2023-07-20T14:16:24;26.90;59.90
17370;DHT22;8802;52.402;4.920;2023-07-20T14:18:51;26.90;60.40
17370;DHT22;8802;52.402;4.920;2023-07-20T14:21:19;26.80;59.60
17370;DHT22;8802;52.402;4.920;2023-07-20T14:23:47;26.80;60.20
17370;DHT22;8802;52.402;4.920;2023-07-20T14:26:15;26.70;60.20
17370;DHT22;8802;52.402;4.920;2023-07-20T14:28:43;26.60;60.90
17370;DHT22;8802;52.402;4.920;2023-07-20T14:31:10;26.60;60.50
17370;DHT22;8802;52.402;4.920;2023-07-20T14:33:37;26.50;60.00
17370;DHT22;8802;52.402;4.920;2023-07-20T14:36:05;26.40;59.80
17370;DHT22;8802;52.402;4.920;2023-07-20T14:38:33;26.40;60.60
17370;DHT22;8802;52.402;4.920;2023-07-20T14:41:01;26.30;59.80
17370;DHT22;8802;52.402;4.920;2023-07-20T14:43:28;26.20;60.10
17370;DHT22;8802;52.402;4.920;2023-07-20T14:45:56;26.20;60.50
17370;DHT22;8802;52.402;4.920;2023-07-20T14:48:23;26.10;60.10
17370;DHT22;8802;52.402;4.920;2023-07-20T14:50:50;26.10;60.00
17370;DHT22;8802;52.402;4.920;2023-07-20T14:53:17;26.00;60.30
17370;DHT22;8802;52.402;4.920;2023-07-20T14:55:44;26.00;60.00
17370;DHT22;8802;52.402;4.920;2023-07-20T14:58:11;26.00;59.70
17370;DHT22;8802;52.402;4.920;2023-07-20T15:00:38;26.00;59.70
17370;DHT22;8802;52.402;4.920;2023-07-20T15:03:07;25.90;60.00
17370;DHT22;8802;52.402;4.920;2023-07-20T15:05:35;25.90;60.00
17370;DHT22;8802;52.402;4.920;2023-07-20T15:08:04;25.90;60.00
17370;DHT22;8802;52.402;4.920;2023-07-20T15:10:31;25.90;60.10
17370;DHT22;8802;52.402;4.920;2023-07-20T15:12:59;25.80;60.40
17370;DHT22;8802;52.402;4.920;2023-07-20T15:15:26;25.80;60.10
17370;DHT22;8802;52.402;4.920;2023-07-20T15:17:53;25.80;60.40
17370;DHT22;8802;52.402;4.920;2023-07-20T15:20:22;25.80;60.50
17370;DHT22;8802;52.402;4.920;2023-07-20T15:22:49;25.70;59.90
17370;DHT22;8802;52.402;4.920;2023-07-20T15:25:15;25.70;61.30
17370;DHT22;8802;52.402;4.920;2023-07-20T15:27:42;25.70;60.40
17370;DHT22;8802;52.402;4.920;2023-07-20T15:30:10;25.70;60.40
17370;DHT22;8802;52.402;4.920;2023-07-20T15:32:38;25.70;60.80
17370;DHT22;8802;52.402;4.920;2023-07-20T15:35:06;25.70;60.80
17370;DHT22;8802;52.402;4.920;2023-07-20T15:37:35;25.70;61.10
17370;DHT22;8802;52.402;4.920;2023-07-20T15:40:03;25.80;61.80
17370;DHT22;8802;52.402;4.920;2023-07-20T15:42:31;25.80;61.90
17370;DHT22;8802;52.402;4.920;2023-07-20T15:44:58;25.80;61.70
17370;DHT22;8802;52.402;4.920;2023-07-20T15:47:26;25.80;61.80
17370;DHT22;8802;52.402;4.920;2023-07-20T15:49:53;25.80;62.20
17370;DHT22;8802;52.402;4.920;2023-07-20T15:52:20;25.80;61.10
17370;DHT22;8802;52.402;4.920;2023-07-20T15:54:49;25.80;61.40